KMSN/MSN METAR and TAF weather

Enter ICAO airport designator
Station Type Date Time Source
KMSN METAR 2019/02/20 06:53 UTC NOAA

KMSN 200653Z AUTO 11007KT 9SM OVC060 M05/M08 A3025 RMK AO2 SLP256 T10501083


Station Type Date Time Source
KMSN Decoded METAR 2019/02/20 06:53 UTC NOAA

MADISON DANE COUNTY RGNL, WI, United States (KMSN) 43-08N 89-21W 261M
Feb 20, 2019 - 01:53 AM EST / 2019.02.20 0653 UTC
Wind: from the ESE (110 degrees) at 8 MPH (7 KT):0
Visibility: 9 mile(s):0
Sky conditions: overcast
Temperature: 23.0 F (-5.0 C)
Windchill: 14 F (-10 C):1
Dew Point: 17.1 F (-8.3 C)
Relative Humidity: 77%
Pressure (altimeter): 30.25 in. Hg (1024 hPa)
ob: KMSN 200653Z AUTO 11007KT 9SM OVC060 M05/M08 A3025 RMK AO2 SLP256 T10501083
cycle: 7

Station Type Date Time Source
KMSN TAF 2019/02/20 06:22 UTC NOAA

TAF KMSN 200520Z 2006/2106 10006KT P6SM OVC100
FM200900 10009KT 4SM -SN OVC060
FM201200 09012KT 1SM -SN OVC015
FM201800 12014G23KT 3/4SM -FZRASN OVC008
FM202200 16009KT 2SM -FZRASN OVC008
FM210000 21009KT P6SM OVC008
FM210300 24010KT P6SM OVC010


Example: see airport list